sensor_id;sensor_type;location;lat;lon;timestamp;P1;durP1;ratioP1;P2;durP2;ratioP2
24261;SDS011;12385;51.412;5.540;2022-08-07T00:00:33;4.68;;;2.58;;
24261;SDS011;12385;51.412;5.540;2022-08-07T00:02:59;5.32;;;2.45;;
24261;SDS011;12385;51.412;5.540;2022-08-07T00:05:25;8.10;;;2.42;;
24261;SDS011;12385;51.412;5.540;2022-08-07T00:07:51;3.58;;;2.40;;
24261;SDS011;12385;51.412;5.540;2022-08-07T00:10:18;4.95;;;2.47;;
24261;SDS011;12385;51.412;5.540;2022-08-07T00:12:44;5.40;;;2.30;;
24261;SDS011;12385;51.412;5.540;2022-08-07T00:15:10;5.85;;;2.15;;
24261;SDS011;12385;51.412;5.540;2022-08-07T00:17:36;5.85;;;2.40;;
24261;SDS011;12385;51.412;5.540;2022-08-07T00:20:03;4.82;;;2.78;;
24261;SDS011;12385;51.412;5.540;2022-08-07T00:22:29;6.35;;;2.60;;
24261;SDS011;12385;51.412;5.540;2022-08-07T00:24:55;6.95;;;2.42;;
24261;SDS011;12385;51.412;5.540;2022-08-07T00:27:20;3.92;;;2.45;;
24261;SDS011;12385;51.412;5.540;2022-08-07T00:29:46;3.65;;;2.50;;
24261;SDS011;12385;51.412;5.540;2022-08-07T00:32:11;3.42;;;2.40;;
24261;SDS011;12385;51.412;5.540;2022-08-07T00:34:38;7.72;;;2.78;;
24261;SDS011;12385;51.412;5.540;2022-08-07T00:37:04;5.15;;;2.67;;
24261;SDS011;12385;51.412;5.540;2022-08-07T00:39:31;5.78;;;2.70;;
24261;SDS011;12385;51.412;5.540;2022-08-07T00:41:57;5.00;;;2.40;;
24261;SDS011;12385;51.412;5.540;2022-08-07T00:44:23;3.47;;;2.60;;
24261;SDS011;12385;51.412;5.540;2022-08-07T00:46:49;4.55;;;2.80;;
24261;SDS011;12385;51.412;5.540;2022-08-07T00:49:15;7.53;;;3.20;;
24261;SDS011;12385;51.412;5.540;2022-08-07T00:51:41;4.45;;;2.70;;
24261;SDS011;12385;51.412;5.540;2022-08-07T00:54:07;6.30;;;2.80;;
24261;SDS011;12385;51.412;5.540;2022-08-07T00:56:33;6.35;;;2.95;;
24261;SDS011;12385;51.412;5.540;2022-08-07T00:59:00;5.85;;;3.00;;
24261;SDS011;12385;51.412;5.540;2022-08-07T01:01:26;4.60;;;2.90;;
24261;SDS011;12385;51.412;5.540;2022-08-07T01:03:52;3.85;;;3.05;;
24261;SDS011;12385;51.412;5.540;2022-08-07T01:06:18;5.18;;;3.13;;
24261;SDS011;12385;51.412;5.540;2022-08-07T01:08:44;5.75;;;3.10;;
24261;SDS011;12385;51.412;5.540;2022-08-07T01:11:14;5.80;;;3.42;;
24261;SDS011;12385;51.412;5.540;2022-08-07T01:13:41;5.03;;;3.13;;
24261;SDS011;12385;51.412;5.540;2022-08-07T01:16:07;4.25;;;2.83;;
24261;SDS011;12385;51.412;5.540;2022-08-07T01:18:33;5.75;;;3.30;;
24261;SDS011;12385;51.412;5.540;2022-08-07T01:21:16;5.95;;;3.22;;
24261;SDS011;12385;51.412;5.540;2022-08-07T01:23:45;5.07;;;3.00;;
24261;SDS011;12385;51.412;5.540;2022-08-07T01:26:12;5.35;;;3.05;;
24261;SDS011;12385;51.412;5.540;2022-08-07T01:28:40;6.75;;;3.17;;
24261;SDS011;12385;51.412;5.540;2022-08-07T01:31:07;4.07;;;3.28;;
24261;SDS011;12385;51.412;5.540;2022-08-07T01:33:33;5.10;;;3.38;;
24261;SDS011;12385;51.412;5.540;2022-08-07T01:35:59;5.63;;;3.72;;
24261;SDS011;12385;51.412;5.540;2022-08-07T01:38:26;9.00;;;3.63;;
24261;SDS011;12385;51.412;5.540;2022-08-07T01:40:53;10.18;;;3.47;;
24261;SDS011;12385;51.412;5.540;2022-08-07T01:43:23;5.90;;;3.38;;
24261;SDS011;12385;51.412;5.540;2022-08-07T01:45:50;7.68;;;3.90;;
24261;SDS011;12385;51.412;5.540;2022-08-07T01:48:16;8.98;;;3.70;;
24261;SDS011;12385;51.412;5.540;2022-08-07T01:50:45;4.15;;;3.75;;
24261;SDS011;12385;51.412;5.540;2022-08-07T01:53:14;7.72;;;3.80;;
24261;SDS011;12385;51.412;5.540;2022-08-07T01:55:43;6.13;;;3.80;;
24261;SDS011;12385;51.412;5.540;2022-08-07T01:58:12;7.63;;;3.70;;
24261;SDS011;12385;51.412;5.540;2022-08-07T02:00:42;4.97;;;4.10;;
24261;SDS011;12385;51.412;5.540;2022-08-07T02:03:12;6.45;;;3.90;;
24261;SDS011;12385;51.412;5.540;2022-08-07T02:06:00;9.45;;;4.20;;
24261;SDS011;12385;51.412;5.540;2022-08-07T02:08:28;6.65;;;4.30;;
24261;SDS011;12385;51.412;5.540;2022-08-07T02:10:57;5.85;;;4.25;;
24261;SDS011;12385;51.412;5.540;2022-08-07T02:13:27;7.70;;;4.18;;
24261;SDS011;12385;51.412;5.540;2022-08-07T02:15:55;5.88;;;3.90;;
24261;SDS011;12385;51.412;5.540;2022-08-07T02:18:25;7.40;;;4.47;;
24261;SDS011;12385;51.412;5.540;2022-08-07T02:20:52;7.72;;;4.55;;
24261;SDS011;12385;51.412;5.540;2022-08-07T02:23:20;6.45;;;4.15;;
24261;SDS011;12385;51.412;5.540;2022-08-07T02:25:47;7.03;;;4.35;;
24261;SDS011;12385;51.412;5.540;2022-08-07T02:28:13;6.60;;;4.78;;
24261;SDS011;12385;51.412;5.540;2022-08-07T02:30:40;5.53;;;4.30;;
24261;SDS011;12385;51.412;5.540;2022-08-07T02:33:07;8.38;;;5.00;;
24261;SDS011;12385;51.412;5.540;2022-08-07T02:35:33;6.43;;;4.80;;
24261;SDS011;12385;51.412;5.540;2022-08-07T02:38:01;8.57;;;5.10;;
24261;SDS011;12385;51.412;5.540;2022-08-07T02:40:29;12.27;;;5.88;;
24261;SDS011;12385;51.412;5.540;2022-08-07T02:42:57;7.70;;;4.43;;
24261;SDS011;12385;51.412;5.540;2022-08-07T02:45:24;7.78;;;4.75;;
24261;SDS011;12385;51.412;5.540;2022-08-07T02:47:52;7.13;;;5.00;;
24261;SDS011;12385;51.412;5.540;2022-08-07T02:50:18;6.57;;;5.50;;
24261;SDS011;12385;51.412;5.540;2022-08-07T02:53:02;8.85;;;4.72;;
24261;SDS011;12385;51.412;5.540;2022-08-07T02:55:32;7.60;;;5.63;;
24261;SDS011;12385;51.412;5.540;2022-08-07T03:00:27;9.88;;;5.70;;
24261;SDS011;12385;51.412;5.540;2022-08-07T03:02:54;9.20;;;4.95;;
24261;SDS011;12385;51.412;5.540;2022-08-07T03:05:21;8.38;;;5.00;;
24261;SDS011;12385;51.412;5.540;2022-08-07T03:07:48;8.70;;;5.93;;
24261;SDS011;12385;51.412;5.540;2022-08-07T03:10:14;6.55;;;5.63;;
24261;SDS011;12385;51.412;5.540;2022-08-07T03:12:41;8.52;;;5.30;;
24261;SDS011;12385;51.412;5.540;2022-08-07T03:15:09;6.18;;;5.20;;
24261;SDS011;12385;51.412;5.540;2022-08-07T03:17:36;9.60;;;5.20;;
24261;SDS011;12385;51.412;5.540;2022-08-07T03:20:02;7.65;;;5.28;;
24261;SDS011;12385;51.412;5.540;2022-08-07T03:22:29;6.18;;;5.18;;
24261;SDS011;12385;51.412;5.540;2022-08-07T03:24:56;6.28;;;4.60;;
24261;SDS011;12385;51.412;5.540;2022-08-07T03:27:23;9.32;;;5.40;;
24261;SDS011;12385;51.412;5.540;2022-08-07T03:29:50;8.98;;;6.07;;
24261;SDS011;12385;51.412;5.540;2022-08-07T03:32:17;8.68;;;6.20;;
24261;SDS011;12385;51.412;5.540;2022-08-07T03:34:47;6.90;;;5.88;;
24261;SDS011;12385;51.412;5.540;2022-08-07T03:37:16;8.70;;;6.90;;
24261;SDS011;12385;51.412;5.540;2022-08-07T03:39:43;9.40;;;6.15;;
24261;SDS011;12385;51.412;5.540;2022-08-07T03:42:11;7.03;;;5.82;;
24261;SDS011;12385;51.412;5.540;2022-08-07T03:44:39;7.45;;;6.07;;
24261;SDS011;12385;51.412;5.540;2022-08-07T03:47:05;9.95;;;6.60;;
24261;SDS011;12385;51.412;5.540;2022-08-07T03:49:31;7.75;;;6.35;;
24261;SDS011;12385;51.412;5.540;2022-08-07T03:51:58;6.93;;;5.80;;
24261;SDS011;12385;51.412;5.540;2022-08-07T03:54:25;7.70;;;5.65;;
24261;SDS011;12385;51.412;5.540;2022-08-07T03:56:51;9.43;;;5.97;;
24261;SDS011;12385;51.412;5.540;2022-08-07T03:59:20;8.68;;;5.97;;
24261;SDS011;12385;51.412;5.540;2022-08-07T04:01:47;10.32;;;6.95;;
24261;SDS011;12385;51.412;5.540;2022-08-07T04:04:16;10.93;;;7.40;;
24261;SDS011;12385;51.412;5.540;2022-08-07T04:06:43;7.95;;;7.05;;
24261;SDS011;12385;51.412;5.540;2022-08-07T04:09:09;8.88;;;6.50;;
24261;SDS011;12385;51.412;5.540;2022-08-07T04:11:36;11.90;;;6.95;;
24261;SDS011;12385;51.412;5.540;2022-08-07T04:14:02;9.38;;;7.03;;
24261;SDS011;12385;51.412;5.540;2022-08-07T04:16:29;8.40;;;6.55;;
24261;SDS011;12385;51.412;5.540;2022-08-07T04:18:55;8.98;;;6.80;;
24261;SDS011;12385;51.412;5.540;2022-08-07T04:21:21;9.38;;;6.72;;
24261;SDS011;12385;51.412;5.540;2022-08-07T04:23:47;9.80;;;7.43;;
24261;SDS011;12385;51.412;5.540;2022-08-07T04:26:14;9.88;;;6.60;;
24261;SDS011;12385;51.412;5.540;2022-08-07T04:28:40;10.48;;;7.07;;
24261;SDS011;12385;51.412;5.540;2022-08-07T04:31:06;9.95;;;7.35;;
24261;SDS011;12385;51.412;5.540;2022-08-07T04:33:33;10.15;;;7.22;;
24261;SDS011;12385;51.412;5.540;2022-08-07T04:36:00;9.05;;;7.82;;
24261;SDS011;12385;51.412;5.540;2022-08-07T04:38:27;10.93;;;8.73;;
24261;SDS011;12385;51.412;5.540;2022-08-07T04:40:52;10.15;;;8.32;;
24261;SDS011;12385;51.412;5.540;2022-08-07T04:43:20;14.15;;;8.73;;
24261;SDS011;12385;51.412;5.540;2022-08-07T04:53:58;14.65;;;8.45;;
24261;SDS011;12385;51.412;5.540;2022-08-07T04:59:45;13.30;;;9.05;;
24261;SDS011;12385;51.412;5.540;2022-08-07T05:02:17;18.13;;;8.70;;
24261;SDS011;12385;51.412;5.540;2022-08-07T05:07:54;13.20;;;8.95;;
24261;SDS011;12385;51.412;5.540;2022-08-07T05:10:34;13.80;;;9.05;;
24261;SDS011;12385;51.412;5.540;2022-08-07T05:13:08;13.90;;;9.50;;
24261;SDS011;12385;51.412;5.540;2022-08-07T05:15:50;17.17;;;9.70;;
24261;SDS011;12385;51.412;5.540;2022-08-07T05:18:25;15.05;;;9.30;;
24261;SDS011;12385;51.412;5.540;2022-08-07T05:20:53;12.05;;;8.98;;
24261;SDS011;12385;51.412;5.540;2022-08-07T05:26:03;14.75;;;8.75;;
24261;SDS011;12385;51.412;5.540;2022-08-07T05:28:34;15.68;;;9.60;;
24261;SDS011;12385;51.412;5.540;2022-08-07T05:31:01;17.38;;;9.77;;
24261;SDS011;12385;51.412;5.540;2022-08-07T05:33:28;13.50;;;9.05;;
24261;SDS011;12385;51.412;5.540;2022-08-07T05:35:56;13.77;;;9.27;;
24261;SDS011;12385;51.412;5.540;2022-08-07T05:38:22;13.43;;;9.60;;
24261;SDS011;12385;51.412;5.540;2022-08-07T05:40:49;14.10;;;9.05;;
24261;SDS011;12385;51.412;5.540;2022-08-07T05:43:16;14.27;;;9.40;;
24261;SDS011;12385;51.412;5.540;2022-08-07T05:45:42;15.60;;;9.05;;
24261;SDS011;12385;51.412;5.540;2022-08-07T05:48:08;13.38;;;9.18;;
24261;SDS011;12385;51.412;5.540;2022-08-07T05:50:34;12.77;;;9.10;;
24261;SDS011;12385;51.412;5.540;2022-08-07T05:53:01;13.95;;;9.75;;
24261;SDS011;12385;51.412;5.540;2022-08-07T05:55:27;15.13;;;9.57;;
24261;SDS011;12385;51.412;5.540;2022-08-07T05:57:54;16.10;;;9.40;;
24261;SDS011;12385;51.412;5.540;2022-08-07T06:00:21;13.32;;;9.07;;
24261;SDS011;12385;51.412;5.540;2022-08-07T06:02:49;12.50;;;8.63;;
24261;SDS011;12385;51.412;5.540;2022-08-07T06:05:17;14.27;;;9.40;;
24261;SDS011;12385;51.412;5.540;2022-08-07T06:07:45;13.15;;;9.13;;
24261;SDS011;12385;51.412;5.540;2022-08-07T06:10:11;12.90;;;9.52;;
24261;SDS011;12385;51.412;5.540;2022-08-07T06:12:37;13.55;;;9.13;;
24261;SDS011;12385;51.412;5.540;2022-08-07T06:15:03;11.98;;;9.40;;
24261;SDS011;12385;51.412;5.540;2022-08-07T06:17:30;15.82;;;10.02;;
24261;SDS011;12385;51.412;5.540;2022-08-07T06:19:56;12.77;;;8.95;;
24261;SDS011;12385;51.412;5.540;2022-08-07T06:22:23;13.85;;;9.45;;
24261;SDS011;12385;51.412;5.540;2022-08-07T06:24:50;12.05;;;8.73;;
24261;SDS011;12385;51.412;5.540;2022-08-07T06:27:22;12.65;;;9.68;;
24261;SDS011;12385;51.412;5.540;2022-08-07T06:29:48;13.45;;;9.18;;
24261;SDS011;12385;51.412;5.540;2022-08-07T06:32:14;13.40;;;9.57;;
24261;SDS011;12385;51.412;5.540;2022-08-07T06:34:40;13.55;;;9.23;;
24261;SDS011;12385;51.412;5.540;2022-08-07T06:37:06;13.23;;;9.15;;
24261;SDS011;12385;51.412;5.540;2022-08-07T06:39:31;20.58;;;9.70;;
24261;SDS011;12385;51.412;5.540;2022-08-07T06:42:04;11.82;;;9.27;;
24261;SDS011;12385;51.412;5.540;2022-08-07T06:44:30;14.63;;;8.85;;
24261;SDS011;12385;51.412;5.540;2022-08-07T06:46:57;12.70;;;9.07;;
24261;SDS011;12385;51.412;5.540;2022-08-07T06:49:23;12.43;;;8.90;;
24261;SDS011;12385;51.412;5.540;2022-08-07T06:51:49;11.95;;;8.57;;
24261;SDS011;12385;51.412;5.540;2022-08-07T06:54:17;14.55;;;8.82;;
24261;SDS011;12385;51.412;5.540;2022-08-07T06:56:44;16.23;;;9.80;;
24261;SDS011;12385;51.412;5.540;2022-08-07T06:59:15;13.55;;;8.95;;
24261;SDS011;12385;51.412;5.540;2022-08-07T07:01:44;11.30;;;8.82;;
24261;SDS011;12385;51.412;5.540;2022-08-07T07:04:11;14.38;;;9.18;;
24261;SDS011;12385;51.412;5.540;2022-08-07T07:06:37;12.68;;;8.77;;
24261;SDS011;12385;51.412;5.540;2022-08-07T07:11:45;12.45;;;8.98;;
24261;SDS011;12385;51.412;5.540;2022-08-07T07:14:38;12.20;;;8.38;;
24261;SDS011;12385;51.412;5.540;2022-08-07T07:17:13;12.30;;;8.50;;
24261;SDS011;12385;51.412;5.540;2022-08-07T07:19:45;13.63;;;8.90;;
24261;SDS011;12385;51.412;5.540;2022-08-07T07:22:14;10.85;;;8.10;;
24261;SDS011;12385;51.412;5.540;2022-08-07T07:24:41;11.07;;;8.10;;
24261;SDS011;12385;51.412;5.540;2022-08-07T07:27:07;9.05;;;7.53;;
24261;SDS011;12385;51.412;5.540;2022-08-07T07:29:36;10.55;;;7.68;;
24261;SDS011;12385;51.412;5.540;2022-08-07T07:32:05;11.95;;;8.52;;
24261;SDS011;12385;51.412;5.540;2022-08-07T07:34:33;12.20;;;7.83;;
24261;SDS011;12385;51.412;5.540;2022-08-07T07:37:02;11.30;;;7.35;;
24261;SDS011;12385;51.412;5.540;2022-08-07T07:39:29;11.10;;;7.30;;
24261;SDS011;12385;51.412;5.540;2022-08-07T07:41:56;9.93;;;7.53;;
24261;SDS011;12385;51.412;5.540;2022-08-07T07:44:24;9.23;;;6.85;;
24261;SDS011;12385;51.412;5.540;2022-08-07T07:46:52;8.55;;;6.20;;
24261;SDS011;12385;51.412;5.540;2022-08-07T07:49:19;9.90;;;6.20;;
24261;SDS011;12385;51.412;5.540;2022-08-07T07:51:46;11.30;;;6.45;;
24261;SDS011;12385;51.412;5.540;2022-08-07T07:54:13;7.28;;;6.00;;
24261;SDS011;12385;51.412;5.540;2022-08-07T07:56:40;9.57;;;6.20;;
24261;SDS011;12385;51.412;5.540;2022-08-07T07:59:08;11.13;;;6.43;;
24261;SDS011;12385;51.412;5.540;2022-08-07T08:01:35;9.80;;;6.75;;
24261;SDS011;12385;51.412;5.540;2022-08-07T08:04:04;8.70;;;5.50;;
24261;SDS011;12385;51.412;5.540;2022-08-07T08:06:32;9.02;;;5.60;;
24261;SDS011;12385;51.412;5.540;2022-08-07T08:08:59;8.02;;;5.40;;
24261;SDS011;12385;51.412;5.540;2022-08-07T08:11:26;11.82;;;5.78;;
24261;SDS011;12385;51.412;5.540;2022-08-07T08:13:54;7.78;;;4.80;;
24261;SDS011;12385;51.412;5.540;2022-08-07T08:16:20;9.55;;;5.72;;
24261;SDS011;12385;51.412;5.540;2022-08-07T08:18:50;7.20;;;5.53;;
24261;SDS011;12385;51.412;5.540;2022-08-07T08:21:19;8.02;;;5.72;;
24261;SDS011;12385;51.412;5.540;2022-08-07T08:24:04;10.25;;;5.50;;
24261;SDS011;12385;51.412;5.540;2022-08-07T08:26:50;9.77;;;4.82;;
24261;SDS011;12385;51.412;5.540;2022-08-07T08:29:41;6.30;;;4.32;;
24261;SDS011;12385;51.412;5.540;2022-08-07T08:32:14;8.20;;;4.25;;
24261;SDS011;12385;51.412;5.540;2022-08-07T08:34:45;6.15;;;4.15;;
24261;SDS011;12385;51.412;5.540;2022-08-07T08:37:14;6.18;;;3.33;;
24261;SDS011;12385;51.412;5.540;2022-08-07T08:39:44;9.30;;;2.85;;
24261;SDS011;12385;51.412;5.540;2022-08-07T08:44:52;5.68;;;3.17;;
24261;SDS011;12385;51.412;5.540;2022-08-07T08:48:22;7.75;;;3.90;;
24261;SDS011;12385;51.412;5.540;2022-08-07T08:50:44;5.22;;;3.50;;
24261;SDS011;12385;51.412;5.540;2022-08-07T08:55:40;5.65;;;3.20;;
24261;SDS011;12385;51.412;5.540;2022-08-07T09:03:47;12.35;;;3.17;;
24261;SDS011;12385;51.412;5.540;2022-08-07T09:23:50;4.22;;;2.28;;
24261;SDS011;12385;51.412;5.540;2022-08-07T09:29:05;4.03;;;1.95;;
24261;SDS011;12385;51.412;5.540;2022-08-07T09:32:06;6.18;;;2.70;;
24261;SDS011;12385;51.412;5.540;2022-08-07T09:38:14;6.75;;;2.50;;
24261;SDS011;12385;51.412;5.540;2022-08-07T09:40:56;3.55;;;1.70;;
24261;SDS011;12385;51.412;5.540;2022-08-07T10:00:14;4.97;;;2.20;;
24261;SDS011;12385;51.412;5.540;2022-08-07T10:13:34;4.43;;;2.22;;
24261;SDS011;12385;51.412;5.540;2022-08-07T10:25:27;3.15;;;1.77;;
24261;SDS011;12385;51.412;5.540;2022-08-07T10:39:53;7.50;;;2.55;;
24261;SDS011;12385;51.412;5.540;2022-08-07T10:42:39;6.22;;;2.10;;
24261;SDS011;12385;51.412;5.540;2022-08-07T10:45:21;5.53;;;2.40;;
24261;SDS011;12385;51.412;5.540;2022-08-07T10:47:50;5.63;;;2.60;;
24261;SDS011;12385;51.412;5.540;2022-08-07T10:50:38;6.05;;;2.83;;
24261;SDS011;12385;51.412;5.540;2022-08-07T10:53:15;4.72;;;2.50;;
24261;SDS011;12385;51.412;5.540;2022-08-07T10:55:43;5.97;;;2.55;;
24261;SDS011;12385;51.412;5.540;2022-08-07T11:01:03;2.45;;;1.70;;
24261;SDS011;12385;51.412;5.540;2022-08-07T11:03:50;4.38;;;1.85;;
24261;SDS011;12385;51.412;5.540;2022-08-07T11:09:30;4.65;;;2.15;;
24261;SDS011;12385;51.412;5.540;2022-08-07T11:15:06;4.55;;;2.80;;
24261;SDS011;12385;51.412;5.540;2022-08-07T11:20:26;5.60;;;2.28;;
24261;SDS011;12385;51.412;5.540;2022-08-07T11:25:40;4.78;;;2.35;;
24261;SDS011;12385;51.412;5.540;2022-08-07T11:28:15;4.47;;;2.28;;
24261;SDS011;12385;51.412;5.540;2022-08-07T11:31:06;6.68;;;2.30;;
24261;SDS011;12385;51.412;5.540;2022-08-07T11:42:18;3.90;;;1.80;;
24261;SDS011;12385;51.412;5.540;2022-08-07T11:44:55;5.00;;;2.22;;
24261;SDS011;12385;51.412;5.540;2022-08-07T11:55:42;3.58;;;2.15;;
24261;SDS011;12385;51.412;5.540;2022-08-07T12:01:52;2.45;;;1.60;;
24261;SDS011;12385;51.412;5.540;2022-08-07T12:09:52;2.75;;;1.75;;
24261;SDS011;12385;51.412;5.540;2022-08-07T12:12:26;4.70;;;1.80;;
24261;SDS011;12385;51.412;5.540;2022-08-07T12:15:09;3.10;;;1.55;;
24261;SDS011;12385;51.412;5.540;2022-08-07T12:17:52;2.58;;;1.90;;
24261;SDS011;12385;51.412;5.540;2022-08-07T12:26:13;3.50;;;1.70;;
24261;SDS011;12385;51.412;5.540;2022-08-07T12:34:03;2.50;;;1.90;;
24261;SDS011;12385;51.412;5.540;2022-08-07T12:36:29;6.85;;;1.90;;
24261;SDS011;12385;51.412;5.540;2022-08-07T12:38:58;3.92;;;1.80;;
24261;SDS011;12385;51.412;5.540;2022-08-07T12:41:27;10.02;;;2.90;;
24261;SDS011;12385;51.412;5.540;2022-08-07T12:43:55;6.47;;;1.50;;
24261;SDS011;12385;51.412;5.540;2022-08-07T12:51:30;4.15;;;1.90;;
24261;SDS011;12385;51.412;5.540;2022-08-07T12:54:30;3.97;;;1.70;;
24261;SDS011;12385;51.412;5.540;2022-08-07T12:57:05;2.63;;;1.73;;
24261;SDS011;12385;51.412;5.540;2022-08-07T12:59:32;6.35;;;1.70;;
24261;SDS011;12385;51.412;5.540;2022-08-07T13:02:05;2.60;;;1.60;;
24261;SDS011;12385;51.412;5.540;2022-08-07T13:08:05;4.35;;;1.80;;
24261;SDS011;12385;51.412;5.540;2022-08-07T13:10:55;1.92;;;1.70;;
24261;SDS011;12385;51.412;5.540;2022-08-07T13:16:04;1.95;;;1.60;;
24261;SDS011;12385;51.412;5.540;2022-08-07T13:18:57;4.43;;;1.80;;
24261;SDS011;12385;51.412;5.540;2022-08-07T13:21:25;3.50;;;1.60;;
24261;SDS011;12385;51.412;5.540;2022-08-07T13:27:10;2.40;;;1.50;;
24261;SDS011;12385;51.412;5.540;2022-08-07T13:35:08;2.33;;;1.50;;
24261;SDS011;12385;51.412;5.540;2022-08-07T13:37:41;1.48;;;1.25;;
24261;SDS011;12385;51.412;5.540;2022-08-07T13:40:28;3.47;;;1.50;;
24261;SDS011;12385;51.412;5.540;2022-08-07T13:43:01;4.40;;;1.30;;
24261;SDS011;12385;51.412;5.540;2022-08-07T13:45:31;2.42;;;1.40;;
24261;SDS011;12385;51.412;5.540;2022-08-07T13:48:00;2.65;;;1.50;;
24261;SDS011;12385;51.412;5.540;2022-08-07T13:50:28;2.92;;;1.50;;
24261;SDS011;12385;51.412;5.540;2022-08-07T13:52:56;3.00;;;1.77;;
24261;SDS011;12385;51.412;5.540;2022-08-07T13:55:25;2.50;;;1.50;;
24261;SDS011;12385;51.412;5.540;2022-08-07T13:58:03;3.63;;;1.55;;
24261;SDS011;12385;51.412;5.540;2022-08-07T14:00:49;3.78;;;1.45;;
24261;SDS011;12385;51.412;5.540;2022-08-07T14:03:16;1.98;;;1.10;;
24261;SDS011;12385;51.412;5.540;2022-08-07T14:05:45;2.50;;;1.20;;
24261;SDS011;12385;51.412;5.540;2022-08-07T14:08:14;3.40;;;1.60;;
24261;SDS011;12385;51.412;5.540;2022-08-07T14:10:41;2.80;;;1.40;;
24261;SDS011;12385;51.412;5.540;2022-08-07T14:13:12;3.08;;;1.48;;
24261;SDS011;12385;51.412;5.540;2022-08-07T14:15:43;3.38;;;1.35;;
24261;SDS011;12385;51.412;5.540;2022-08-07T14:18:21;3.72;;;1.40;;
24261;SDS011;12385;51.412;5.540;2022-08-07T14:21:07;3.75;;;1.42;;
24261;SDS011;12385;51.412;5.540;2022-08-07T14:23:35;2.08;;;1.38;;
24261;SDS011;12385;51.412;5.540;2022-08-07T14:26:11;2.47;;;1.20;;
24261;SDS011;12385;51.412;5.540;2022-08-07T14:28:42;2.78;;;1.65;;
24261;SDS011;12385;51.412;5.540;2022-08-07T14:31:10;3.95;;;1.50;;
24261;SDS011;12385;51.412;5.540;2022-08-07T14:33:39;3.15;;;1.52;;
24261;SDS011;12385;51.412;5.540;2022-08-07T14:36:06;3.92;;;1.30;;
24261;SDS011;12385;51.412;5.540;2022-08-07T14:38:35;3.63;;;1.17;;
24261;SDS011;12385;51.412;5.540;2022-08-07T14:41:04;4.18;;;1.33;;
24261;SDS011;12385;51.412;5.540;2022-08-07T14:43:37;1.27;;;1.17;;
24261;SDS011;12385;51.412;5.540;2022-08-07T14:46:05;2.42;;;1.20;;
24261;SDS011;12385;51.412;5.540;2022-08-07T14:48:34;4.35;;;1.38;;
24261;SDS011;12385;51.412;5.540;2022-08-07T14:51:04;3.08;;;1.20;;
24261;SDS011;12385;51.412;5.540;2022-08-07T14:53:36;1.88;;;1.27;;
24261;SDS011;12385;51.412;5.540;2022-08-07T14:56:06;2.42;;;1.25;;
24261;SDS011;12385;51.412;5.540;2022-08-07T14:58:34;1.85;;;1.40;;
24261;SDS011;12385;51.412;5.540;2022-08-07T15:01:03;4.07;;;1.83;;
24261;SDS011;12385;51.412;5.540;2022-08-07T15:03:30;2.80;;;1.30;;
24261;SDS011;12385;51.412;5.540;2022-08-07T15:05:58;8.30;;;2.35;;
24261;SDS011;12385;51.412;5.540;2022-08-07T15:08:29;4.82;;;1.00;;
24261;SDS011;12385;51.412;5.540;2022-08-07T15:11:01;3.38;;;1.30;;
24261;SDS011;12385;51.412;5.540;2022-08-07T15:13:34;4.38;;;1.30;;
24261;SDS011;12385;51.412;5.540;2022-08-07T15:16:05;1.95;;;1.25;;
24261;SDS011;12385;51.412;5.540;2022-08-07T15:21:06;1.50;;;1.25;;
24261;SDS011;12385;51.412;5.540;2022-08-07T15:23:41;4.35;;;1.13;;
24261;SDS011;12385;51.412;5.540;2022-08-07T15:26:10;2.80;;;1.17;;
24261;SDS011;12385;51.412;5.540;2022-08-07T15:28:37;2.38;;;1.15;;
24261;SDS011;12385;51.412;5.540;2022-08-07T15:31:05;2.17;;;1.30;;
24261;SDS011;12385;51.412;5.540;2022-08-07T15:33:34;2.17;;;1.30;;
24261;SDS011;12385;51.412;5.540;2022-08-07T15:36:05;3.70;;;1.20;;
24261;SDS011;12385;51.412;5.540;2022-08-07T15:38:33;6.07;;;1.23;;
24261;SDS011;12385;51.412;5.540;2022-08-07T15:41:03;1.15;;;1.02;;
24261;SDS011;12385;51.412;5.540;2022-08-07T15:43:34;1.88;;;0.90;;
24261;SDS011;12385;51.412;5.540;2022-08-07T15:46:21;1.20;;;0.90;;
24261;SDS011;12385;51.412;5.540;2022-08-07T15:48:51;2.03;;;1.02;;
24261;SDS011;12385;51.412;5.540;2022-08-07T15:51:19;1.40;;;1.00;;
24261;SDS011;12385;51.412;5.540;2022-08-07T15:53:48;1.13;;;0.90;;
24261;SDS011;12385;51.412;5.540;2022-08-07T15:56:18;2.17;;;1.23;;
24261;SDS011;12385;51.412;5.540;2022-08-07T15:58:50;1.77;;;1.00;;
24261;SDS011;12385;51.412;5.540;2022-08-07T16:01:24;1.77;;;1.00;;
24261;SDS011;12385;51.412;5.540;2022-08-07T16:03:59;2.45;;;1.10;;
24261;SDS011;12385;51.412;5.540;2022-08-07T16:06:28;3.88;;;1.17;;
24261;SDS011;12385;51.412;5.540;2022-08-07T16:08:58;2.13;;;1.20;;
24261;SDS011;12385;51.412;5.540;2022-08-07T16:17:37;2.20;;;0.90;;
24261;SDS011;12385;51.412;5.540;2022-08-07T16:26:57;1.15;;;1.05;;
24261;SDS011;12385;51.412;5.540;2022-08-07T16:32:06;1.58;;;1.00;;
24261;SDS011;12385;51.412;5.540;2022-08-07T16:34:43;3.60;;;0.90;;
24261;SDS011;12385;51.412;5.540;2022-08-07T16:46:17;1.17;;;0.95;;
24261;SDS011;12385;51.412;5.540;2022-08-07T16:52:16;1.67;;;0.90;;
24261;SDS011;12385;51.412;5.540;2022-08-07T16:54:59;2.25;;;1.10;;
24261;SDS011;12385;51.412;5.540;2022-08-07T17:08:00;1.58;;;1.05;;
24261;SDS011;12385;51.412;5.540;2022-08-07T17:21:19;4.32;;;2.83;;
24261;SDS011;12385;51.412;5.540;2022-08-07T17:24:30;3.55;;;2.22;;
24261;SDS011;12385;51.412;5.540;2022-08-07T17:32:42;4.43;;;2.80;;
24261;SDS011;12385;51.412;5.540;2022-08-07T17:38:12;3.47;;;2.47;;
24261;SDS011;12385;51.412;5.540;2022-08-07T17:43:09;4.28;;;2.67;;
24261;SDS011;12385;51.412;5.540;2022-08-07T17:45:42;6.00;;;2.40;;
24261;SDS011;12385;51.412;5.540;2022-08-07T17:48:17;3.17;;;1.58;;
24261;SDS011;12385;51.412;5.540;2022-08-07T17:50:52;2.70;;;1.73;;
24261;SDS011;12385;51.412;5.540;2022-08-07T18:09:31;4.43;;;1.63;;
24261;SDS011;12385;51.412;5.540;2022-08-07T18:12:11;2.30;;;1.60;;
24261;SDS011;12385;51.412;5.540;2022-08-07T18:14:58;4.45;;;1.80;;
24261;SDS011;12385;51.412;5.540;2022-08-07T18:17:31;4.85;;;1.80;;
24261;SDS011;12385;51.412;5.540;2022-08-07T18:20:08;4.20;;;1.60;;
24261;SDS011;12385;51.412;5.540;2022-08-07T18:25:55;4.78;;;1.90;;
24261;SDS011;12385;51.412;5.540;2022-08-07T18:28:33;4.20;;;1.98;;
24261;SDS011;12385;51.412;5.540;2022-08-07T18:31:15;3.08;;;1.95;;
24261;SDS011;12385;51.412;5.540;2022-08-07T18:33:54;3.28;;;1.77;;
24261;SDS011;12385;51.412;5.540;2022-08-07T18:36:38;5.50;;;2.00;;
24261;SDS011;12385;51.412;5.540;2022-08-07T18:42:31;2.60;;;2.03;;
24261;SDS011;12385;51.412;5.540;2022-08-07T18:45:04;3.15;;;2.05;;
24261;SDS011;12385;51.412;5.540;2022-08-07T18:47:37;3.13;;;1.90;;
24261;SDS011;12385;51.412;5.540;2022-08-07T19:01:15;2.35;;;1.98;;
24261;SDS011;12385;51.412;5.540;2022-08-07T19:04:02;3.20;;;2.15;;
24261;SDS011;12385;51.412;5.540;2022-08-07T19:09:20;4.18;;;2.13;;
24261;SDS011;12385;51.412;5.540;2022-08-07T19:12:50;4.10;;;1.92;;
24261;SDS011;12385;51.412;5.540;2022-08-07T19:20:31;4.25;;;2.05;;
24261;SDS011;12385;51.412;5.540;2022-08-07T19:23:25;3.72;;;1.70;;
24261;SDS011;12385;51.412;5.540;2022-08-07T19:25:55;2.05;;;1.80;;
24261;SDS011;12385;51.412;5.540;2022-08-07T19:28:26;3.35;;;1.80;;
24261;SDS011;12385;51.412;5.540;2022-08-07T19:30:56;3.88;;;2.25;;
24261;SDS011;12385;51.412;5.540;2022-08-07T19:33:32;5.07;;;2.20;;
24261;SDS011;12385;51.412;5.540;2022-08-07T19:36:03;4.60;;;2.20;;
24261;SDS011;12385;51.412;5.540;2022-08-07T19:38:31;6.07;;;2.10;;
24261;SDS011;12385;51.412;5.540;2022-08-07T19:40:59;4.00;;;2.30;;
24261;SDS011;12385;51.412;5.540;2022-08-07T19:43:29;3.22;;;2.03;;
24261;SDS011;12385;51.412;5.540;2022-08-07T19:45:56;2.60;;;1.67;;
24261;SDS011;12385;51.412;5.540;2022-08-07T19:48:44;4.90;;;2.22;;